sensor_id;sensor_type;location;lat;lon;timestamp;temperature;humidity
60293;DHT22;52402;52.670;6.750;2023-04-01T00:00:16;9.80;99.90
60293;DHT22;52402;52.670;6.750;2023-04-01T00:02:42;9.80;99.90
60293;DHT22;52402;52.670;6.750;2023-04-01T00:05:09;9.80;99.90
60293;DHT22;52402;52.670;6.750;2023-04-01T00:07:39;9.80;99.90
60293;DHT22;52402;52.670;6.750;2023-04-01T00:10:07;9.80;99.90
60293;DHT22;52402;52.670;6.750;2023-04-01T00:12:33;9.80;99.90
60293;DHT22;52402;52.670;6.750;2023-04-01T00:14:59;9.80;99.90
60293;DHT22;52402;52.670;6.750;2023-04-01T00:17:25;9.80;99.90
60293;DHT22;52402;52.670;6.750;2023-04-01T00:19:50;9.80;99.90
60293;DHT22;52402;52.670;6.750;2023-04-01T00:22:16;9.80;99.90
60293;DHT22;52402;52.670;6.750;2023-04-01T00:24:42;9.80;99.90
60293;DHT22;52402;52.670;6.750;2023-04-01T00:27:07;9.80;99.90
60293;DHT22;52402;52.670;6.750;2023-04-01T00:29:34;9.80;99.90
60293;DHT22;52402;52.670;6.750;2023-04-01T00:32:00;9.80;99.90
60293;DHT22;52402;52.670;6.750;2023-04-01T00:34:26;9.80;99.90
60293;DHT22;52402;52.670;6.750;2023-04-01T00:36:52;9.80;99.90
60293;DHT22;52402;52.670;6.750;2023-04-01T00:39:21;9.80;99.90
60293;DHT22;52402;52.670;6.750;2023-04-01T00:41:47;9.80;99.90
60293;DHT22;52402;52.670;6.750;2023-04-01T00:44:19;9.80;99.90
60293;DHT22;52402;52.670;6.750;2023-04-01T00:46:45;9.70;99.90
60293;DHT22;52402;52.670;6.750;2023-04-01T00:49:12;9.70;99.90
60293;DHT22;52402;52.670;6.750;2023-04-01T00:51:39;9.80;99.90
60293;DHT22;52402;52.670;6.750;2023-04-01T00:54:06;9.80;99.90
60293;DHT22;52402;52.670;6.750;2023-04-01T00:56:38;9.80;99.90
60293;DHT22;52402;52.670;6.750;2023-04-01T00:59:13;9.80;99.90
60293;DHT22;52402;52.670;6.750;2023-04-01T01:01:40;9.80;99.90
60293;DHT22;52402;52.670;6.750;2023-04-01T01:04:05;9.80;99.90
60293;DHT22;52402;52.670;6.750;2023-04-01T01:12:54;9.80;99.90
60293;DHT22;52402;52.670;6.750;2023-04-01T01:15:08;9.80;99.90
60293;DHT22;52402;52.670;6.750;2023-04-01T01:28:57;9.70;99.90
60293;DHT22;52402;52.670;6.750;2023-04-01T01:34:42;9.60;99.90
60293;DHT22;52402;52.670;6.750;2023-04-01T01:37:16;9.60;99.90
60293;DHT22;52402;52.670;6.750;2023-04-01T01:39:44;9.60;99.90
60293;DHT22;52402;52.670;6.750;2023-04-01T01:42:13;9.70;99.90
60293;DHT22;52402;52.670;6.750;2023-04-01T01:44:42;9.70;99.90
60293;DHT22;52402;52.670;6.750;2023-04-01T01:47:10;9.70;99.90
60293;DHT22;52402;52.670;6.750;2023-04-01T01:49:36;9.70;99.90
60293;DHT22;52402;52.670;6.750;2023-04-01T01:52:03;9.70;99.90
60293;DHT22;52402;52.670;6.750;2023-04-01T01:54:29;9.70;99.90
60293;DHT22;52402;52.670;6.750;2023-04-01T01:57:06;9.70;99.90
60293;DHT22;52402;52.670;6.750;2023-04-01T01:59:36;9.70;99.90
60293;DHT22;52402;52.670;6.750;2023-04-01T02:02:03;9.70;99.90
60293;DHT22;52402;52.670;6.750;2023-04-01T02:04:39;9.70;99.90
60293;DHT22;52402;52.670;6.750;2023-04-01T02:07:14;9.70;99.90
60293;DHT22;52402;52.670;6.750;2023-04-01T02:09:41;9.70;99.90
60293;DHT22;52402;52.670;6.750;2023-04-01T02:12:10;9.70;99.90
60293;DHT22;52402;52.670;6.750;2023-04-01T02:14:57;9.70;99.90
60293;DHT22;52402;52.670;6.750;2023-04-01T02:17:27;9.70;99.90
60293;DHT22;52402;52.670;6.750;2023-04-01T02:22:33;9.60;99.90
60293;DHT22;52402;52.670;6.750;2023-04-01T02:25:04;9.60;99.90
60293;DHT22;52402;52.670;6.750;2023-04-01T02:27:31;9.70;99.90
60293;DHT22;52402;52.670;6.750;2023-04-01T02:29:57;9.70;99.90
60293;DHT22;52402;52.670;6.750;2023-04-01T02:32:23;9.70;99.90
60293;DHT22;52402;52.670;6.750;2023-04-01T02:34:50;9.70;99.90
60293;DHT22;52402;52.670;6.750;2023-04-01T02:37:17;9.70;99.90
60293;DHT22;52402;52.670;6.750;2023-04-01T02:39:43;9.70;99.90
60293;DHT22;52402;52.670;6.750;2023-04-01T02:42:09;9.70;99.90
60293;DHT22;52402;52.670;6.750;2023-04-01T02:44:35;9.70;99.90
60293;DHT22;52402;52.670;6.750;2023-04-01T02:47:00;9.70;99.90
60293;DHT22;52402;52.670;6.750;2023-04-01T02:49:26;9.70;99.90
60293;DHT22;52402;52.670;6.750;2023-04-01T02:51:51;9.70;99.90
60293;DHT22;52402;52.670;6.750;2023-04-01T02:54:18;9.70;99.90
60293;DHT22;52402;52.670;6.750;2023-04-01T02:56:44;9.70;99.90
60293;DHT22;52402;52.670;6.750;2023-04-01T02:59:10;9.70;99.90
60293;DHT22;52402;52.670;6.750;2023-04-01T03:01:36;9.80;99.90
60293;DHT22;52402;52.670;6.750;2023-04-01T03:04:02;9.80;99.90
60293;DHT22;52402;52.670;6.750;2023-04-01T03:06:27;9.80;99.90
60293;DHT22;52402;52.670;6.750;2023-04-01T03:08:53;9.80;99.90
60293;DHT22;52402;52.670;6.750;2023-04-01T03:11:18;9.70;99.90
60293;DHT22;52402;52.670;6.750;2023-04-01T03:13:45;9.70;99.90
60293;DHT22;52402;52.670;6.750;2023-04-01T03:16:10;9.80;99.90
60293;DHT22;52402;52.670;6.750;2023-04-01T03:18:36;9.80;99.90
60293;DHT22;52402;52.670;6.750;2023-04-01T03:21:24;9.80;99.90
60293;DHT22;52402;52.670;6.750;2023-04-01T03:23:50;9.80;99.90
60293;DHT22;52402;52.670;6.750;2023-04-01T03:26:17;9.80;99.90
60293;DHT22;52402;52.670;6.750;2023-04-01T03:28:43;9.80;99.90
60293;DHT22;52402;52.670;6.750;2023-04-01T03:31:09;9.80;99.90
60293;DHT22;52402;52.670;6.750;2023-04-01T03:33:35;9.80;99.90
60293;DHT22;52402;52.670;6.750;2023-04-01T03:36:01;9.80;99.90
60293;DHT22;52402;52.670;6.750;2023-04-01T03:38:28;9.80;99.90
60293;DHT22;52402;52.670;6.750;2023-04-01T03:40:54;9.80;99.90
60293;DHT22;52402;52.670;6.750;2023-04-01T03:43:19;9.80;99.90
60293;DHT22;52402;52.670;6.750;2023-04-01T03:45:50;9.80;99.90
60293;DHT22;52402;52.670;6.750;2023-04-01T03:48:16;9.80;99.90
60293;DHT22;52402;52.670;6.750;2023-04-01T03:50:43;9.80;99.90
60293;DHT22;52402;52.670;6.750;2023-04-01T03:53:09;9.80;99.90
60293;DHT22;52402;52.670;6.750;2023-04-01T03:55:38;9.80;99.90
60293;DHT22;52402;52.670;6.750;2023-04-01T03:58:05;9.80;99.90
60293;DHT22;52402;52.670;6.750;2023-04-01T04:00:31;9.80;99.90
60293;DHT22;52402;52.670;6.750;2023-04-01T04:02:57;9.80;99.90
60293;DHT22;52402;52.670;6.750;2023-04-01T04:05:24;9.90;99.90
60293;DHT22;52402;52.670;6.750;2023-04-01T04:07:51;9.80;99.90
60293;DHT22;52402;52.670;6.750;2023-04-01T04:10:17;9.80;99.90
60293;DHT22;52402;52.670;6.750;2023-04-01T04:12:42;9.80;99.90
60293;DHT22;52402;52.670;6.750;2023-04-01T04:15:09;9.80;99.90
60293;DHT22;52402;52.670;6.750;2023-04-01T04:17:34;9.90;99.90
60293;DHT22;52402;52.670;6.750;2023-04-01T04:20:00;9.80;99.90
60293;DHT22;52402;52.670;6.750;2023-04-01T04:22:26;9.90;99.90
60293;DHT22;52402;52.670;6.750;2023-04-01T04:24:52;9.80;99.90
60293;DHT22;52402;52.670;6.750;2023-04-01T04:27:18;9.90;99.90
60293;DHT22;52402;52.670;6.750;2023-04-01T04:29:43;9.90;99.90
60293;DHT22;52402;52.670;6.750;2023-04-01T04:32:09;9.90;99.90
60293;DHT22;52402;52.670;6.750;2023-04-01T04:34:34;9.80;99.90
60293;DHT22;52402;52.670;6.750;2023-04-01T04:37:00;9.90;99.90
60293;DHT22;52402;52.670;6.750;2023-04-01T04:39:26;9.90;99.90
60293;DHT22;52402;52.670;6.750;2023-04-01T04:41:51;9.90;99.90
60293;DHT22;52402;52.670;6.750;2023-04-01T04:44:17;9.80;99.90
60293;DHT22;52402;52.670;6.750;2023-04-01T04:46:43;9.90;99.90
60293;DHT22;52402;52.670;6.750;2023-04-01T04:49:09;9.90;99.90
60293;DHT22;52402;52.670;6.750;2023-04-01T04:51:35;9.90;99.90
60293;DHT22;52402;52.670;6.750;2023-04-01T04:54:05;9.90;99.90
60293;DHT22;52402;52.670;6.750;2023-04-01T04:56:32;9.90;99.90
60293;DHT22;52402;52.670;6.750;2023-04-01T04:58:58;9.90;99.90
60293;DHT22;52402;52.670;6.750;2023-04-01T05:01:24;9.90;99.90
60293;DHT22;52402;52.670;6.750;2023-04-01T05:03:50;9.90;99.90
60293;DHT22;52402;52.670;6.750;2023-04-01T05:06:16;10.00;99.90
60293;DHT22;52402;52.670;6.750;2023-04-01T05:08:43;9.90;99.90
60293;DHT22;52402;52.670;6.750;2023-04-01T05:11:12;9.90;99.90
60293;DHT22;52402;52.670;6.750;2023-04-01T05:13:38;10.00;99.90
60293;DHT22;52402;52.670;6.750;2023-04-01T05:16:11;10.00;99.90
60293;DHT22;52402;52.670;6.750;2023-04-01T05:18:45;10.00;99.90
60293;DHT22;52402;52.670;6.750;2023-04-01T05:21:16;9.90;99.90
60293;DHT22;52402;52.670;6.750;2023-04-01T05:23:44;9.90;99.90
60293;DHT22;52402;52.670;6.750;2023-04-01T05:26:17;9.90;99.90
60293;DHT22;52402;52.670;6.750;2023-04-01T05:28:47;9.90;99.90
60293;DHT22;52402;52.670;6.750;2023-04-01T05:31:21;9.90;99.90
60293;DHT22;52402;52.670;6.750;2023-04-01T05:33:51;10.00;99.90
60293;DHT22;52402;52.670;6.750;2023-04-01T05:36:19;9.90;99.90
60293;DHT22;52402;52.670;6.750;2023-04-01T05:38:50;10.00;99.90
60293;DHT22;52402;52.670;6.750;2023-04-01T05:41:16;10.00;99.90
60293;DHT22;52402;52.670;6.750;2023-04-01T05:43:46;9.90;99.90
60293;DHT22;52402;52.670;6.750;2023-04-01T05:46:18;10.00;99.90
60293;DHT22;52402;52.670;6.750;2023-04-01T05:48:49;10.00;99.90
60293;DHT22;52402;52.670;6.750;2023-04-01T05:51:21;10.00;99.90
60293;DHT22;52402;52.670;6.750;2023-04-01T05:53:47;10.00;99.90
60293;DHT22;52402;52.670;6.750;2023-04-01T05:56:15;10.00;99.90
60293;DHT22;52402;52.670;6.750;2023-04-01T05:58:50;10.00;99.90
60293;DHT22;52402;52.670;6.750;2023-04-01T06:01:19;10.00;99.90
60293;DHT22;52402;52.670;6.750;2023-04-01T06:03:51;10.00;99.90
60293;DHT22;52402;52.670;6.750;2023-04-01T06:06:29;10.00;99.90
60293;DHT22;52402;52.670;6.750;2023-04-01T06:09:47;10.00;99.90
60293;DHT22;52402;52.670;6.750;2023-04-01T06:17:53;10.00;99.90
60293;DHT22;52402;52.670;6.750;2023-04-01T06:26:49;10.10;99.90
60293;DHT22;52402;52.670;6.750;2023-04-01T06:29:51;10.10;99.90
60293;DHT22;52402;52.670;6.750;2023-04-01T06:32:47;10.10;99.90
60293;DHT22;52402;52.670;6.750;2023-04-01T06:35:53;10.10;99.90
60293;DHT22;52402;52.670;6.750;2023-04-01T06:38:47;10.10;99.90
60293;DHT22;52402;52.670;6.750;2023-04-01T06:54:15;10.20;99.90
60293;DHT22;52402;52.670;6.750;2023-04-01T06:56:58;10.20;99.90
60293;DHT22;52402;52.670;6.750;2023-04-01T06:59:34;10.20;99.90
60293;DHT22;52402;52.670;6.750;2023-04-01T07:02:41;10.20;99.90
60293;DHT22;52402;52.670;6.750;2023-04-01T07:05:20;10.30;99.90
60293;DHT22;52402;52.670;6.750;2023-04-01T07:07:52;10.30;99.90
60293;DHT22;52402;52.670;6.750;2023-04-01T07:10:36;10.30;99.90
60293;DHT22;52402;52.670;6.750;2023-04-01T07:13:26;10.40;99.90
60293;DHT22;52402;52.670;6.750;2023-04-01T07:16:19;10.40;99.90
60293;DHT22;52402;52.670;6.750;2023-04-01T07:19:01;10.40;99.90
60293;DHT22;52402;52.670;6.750;2023-04-01T07:21:51;10.50;99.90
60293;DHT22;52402;52.670;6.750;2023-04-01T07:24:28;10.50;99.90
60293;DHT22;52402;52.670;6.750;2023-04-01T07:27:00;10.50;99.90
60293;DHT22;52402;52.670;6.750;2023-04-01T07:29:35;10.50;99.90
60293;DHT22;52402;52.670;6.750;2023-04-01T07:41:13;10.70;99.90
60293;DHT22;52402;52.670;6.750;2023-04-01T07:43:56;10.70;99.90
60293;DHT22;52402;52.670;6.750;2023-04-01T07:46:57;10.80;99.90
60293;DHT22;52402;52.670;6.750;2023-04-01T07:49:36;10.80;99.90
60293;DHT22;52402;52.670;6.750;2023-04-01T07:52:30;10.80;99.90
60293;DHT22;52402;52.670;6.750;2023-04-01T07:55:26;10.90;99.90
60293;DHT22;52402;52.670;6.750;2023-04-01T08:00:53;11.00;99.90
60293;DHT22;52402;52.670;6.750;2023-04-01T08:07:21;11.20;99.90
60293;DHT22;52402;52.670;6.750;2023-04-01T08:10:09;11.20;99.90
60293;DHT22;52402;52.670;6.750;2023-04-01T08:16:32;11.30;99.90
60293;DHT22;52402;52.670;6.750;2023-04-01T08:21:49;11.30;99.90
60293;DHT22;52402;52.670;6.750;2023-04-01T08:25:04;11.30;99.90
60293;DHT22;52402;52.670;6.750;2023-04-01T08:33:35;11.30;99.90
60293;DHT22;52402;52.670;6.750;2023-04-01T08:36:20;11.30;99.90
60293;DHT22;52402;52.670;6.750;2023-04-01T08:41:48;11.20;99.90
60293;DHT22;52402;52.670;6.750;2023-04-01T08:44:33;11.30;99.90
60293;DHT22;52402;52.670;6.750;2023-04-01T08:47:30;11.30;99.90
60293;DHT22;52402;52.670;6.750;2023-04-01T08:57:56;11.30;99.90
60293;DHT22;52402;52.670;6.750;2023-04-01T09:07:07;11.40;99.90
60293;DHT22;52402;52.670;6.750;2023-04-01T09:12:57;11.50;99.90
60293;DHT22;52402;52.670;6.750;2023-04-01T09:21:46;11.60;99.90
60293;DHT22;52402;52.670;6.750;2023-04-01T09:24:50;11.60;99.90
60293;DHT22;52402;52.670;6.750;2023-04-01T09:27:29;11.50;99.90
60293;DHT22;52402;52.670;6.750;2023-04-01T09:30:47;11.60;99.90
60293;DHT22;52402;52.670;6.750;2023-04-01T09:36:45;11.90;99.90
60293;DHT22;52402;52.670;6.750;2023-04-01T09:39:37;12.00;99.90
60293;DHT22;52402;52.670;6.750;2023-04-01T09:42:51;12.10;99.90
60293;DHT22;52402;52.670;6.750;2023-04-01T10:13:39;12.40;99.90
60293;DHT22;52402;52.670;6.750;2023-04-01T10:23:21;12.10;99.90
60293;DHT22;52402;52.670;6.750;2023-04-01T10:36:07;12.10;99.90
60293;DHT22;52402;52.670;6.750;2023-04-01T10:39:07;12.00;99.90
60293;DHT22;52402;52.670;6.750;2023-04-01T10:45:21;12.10;99.90
60293;DHT22;52402;52.670;6.750;2023-04-01T11:07:58;12.40;99.90
60293;DHT22;52402;52.670;6.750;2023-04-01T11:27:25;12.20;99.90
60293;DHT22;52402;52.670;6.750;2023-04-01T11:30:14;12.30;99.90
60293;DHT22;52402;52.670;6.750;2023-04-01T11:33:28;12.30;99.90
60293;DHT22;52402;52.670;6.750;2023-04-01T11:36:20;12.40;99.90
60293;DHT22;52402;52.670;6.750;2023-04-01T12:03:17;12.50;99.90
60293;DHT22;52402;52.670;6.750;2023-04-01T12:06:04;12.40;99.90
60293;DHT22;52402;52.670;6.750;2023-04-01T12:08:57;12.40;99.90
60293;DHT22;52402;52.670;6.750;2023-04-01T12:12:02;12.30;99.90
60293;DHT22;52402;52.670;6.750;2023-04-01T12:14:40;12.20;99.90
60293;DHT22;52402;52.670;6.750;2023-04-01T12:20:51;12.10;99.90
60293;DHT22;52402;52.670;6.750;2023-04-01T12:23:49;12.10;99.90
60293;DHT22;52402;52.670;6.750;2023-04-01T12:26:30;12.00;99.90
60293;DHT22;52402;52.670;6.750;2023-04-01T12:29:14;12.00;99.90
60293;DHT22;52402;52.670;6.750;2023-04-01T12:38:47;11.60;99.90
60293;DHT22;52402;52.670;6.750;2023-04-01T12:47:24;11.30;99.90
60293;DHT22;52402;52.670;6.750;2023-04-01T12:55:56;11.30;99.90
60293;DHT22;52402;52.670;6.750;2023-04-01T12:59:01;11.20;99.90
60293;DHT22;52402;52.670;6.750;2023-04-01T13:02:24;11.30;99.90
60293;DHT22;52402;52.670;6.750;2023-04-01T13:05:09;11.20;99.90
60293;DHT22;52402;52.670;6.750;2023-04-01T13:14:50;11.10;99.90
60293;DHT22;52402;52.670;6.750;2023-04-01T13:17:50;11.10;99.90
60293;DHT22;52402;52.670;6.750;2023-04-01T13:20:54;11.10;99.90
60293;DHT22;52402;52.670;6.750;2023-04-01T13:23:47;11.10;99.90
60293;DHT22;52402;52.670;6.750;2023-04-01T13:26:50;11.00;99.90
60293;DHT22;52402;52.670;6.750;2023-04-01T13:30:08;11.00;99.90
60293;DHT22;52402;52.670;6.750;2023-04-01T13:32:41;10.90;99.90
60293;DHT22;52402;52.670;6.750;2023-04-01T13:35:37;10.80;99.90
60293;DHT22;52402;52.670;6.750;2023-04-01T13:38:48;10.70;99.90
60293;DHT22;52402;52.670;6.750;2023-04-01T13:41:49;10.60;99.90
60293;DHT22;52402;52.670;6.750;2023-04-01T13:45:08;10.60;99.90
60293;DHT22;52402;52.670;6.750;2023-04-01T13:48:22;10.50;99.90
60293;DHT22;52402;52.670;6.750;2023-04-01T13:51:26;10.40;99.90
60293;DHT22;52402;52.670;6.750;2023-04-01T13:54:25;10.40;99.90
60293;DHT22;52402;52.670;6.750;2023-04-01T14:00:35;10.50;99.90
60293;DHT22;52402;52.670;6.750;2023-04-01T14:03:37;10.50;99.90
60293;DHT22;52402;52.670;6.750;2023-04-01T14:09:44;10.50;99.90
60293;DHT22;52402;52.670;6.750;2023-04-01T14:15:39;10.30;99.90
60293;DHT22;52402;52.670;6.750;2023-04-01T14:21:43;10.20;99.90
60293;DHT22;52402;52.670;6.750;2023-04-01T14:24:18;10.30;99.90
60293;DHT22;52402;52.670;6.750;2023-04-01T14:33:30;10.30;99.90
60293;DHT22;52402;52.670;6.750;2023-04-01T14:36:47;10.40;99.90
60293;DHT22;52402;52.670;6.750;2023-04-01T14:42:59;10.40;99.90
60293;DHT22;52402;52.670;6.750;2023-04-01T14:45:55;10.30;99.90
60293;DHT22;52402;52.670;6.750;2023-04-01T14:48:58;10.30;99.90
60293;DHT22;52402;52.670;6.750;2023-04-01T14:51:34;10.30;99.90
60293;DHT22;52402;52.670;6.750;2023-04-01T14:54:16;10.30;99.90
60293;DHT22;52402;52.670;6.750;2023-04-01T14:57:12;10.30;99.90
60293;DHT22;52402;52.670;6.750;2023-04-01T14:59:51;10.30;99.90
60293;DHT22;52402;52.670;6.750;2023-04-01T15:02:43;10.20;99.90
60293;DHT22;52402;52.670;6.750;2023-04-01T15:08:44;10.20;99.90
60293;DHT22;52402;52.670;6.750;2023-04-01T15:11:52;10.30;99.90
60293;DHT22;52402;52.670;6.750;2023-04-01T15:17:51;10.20;99.90
60293;DHT22;52402;52.670;6.750;2023-04-01T15:20:31;10.20;99.90
60293;DHT22;52402;52.670;6.750;2023-04-01T15:23:28;10.10;99.90
60293;DHT22;52402;52.670;6.750;2023-04-01T15:29:33;10.00;99.90
60293;DHT22;52402;52.670;6.750;2023-04-01T15:32:25;10.10;99.90
60293;DHT22;52402;52.670;6.750;2023-04-01T15:38:30;9.90;99.90
60293;DHT22;52402;52.670;6.750;2023-04-01T15:47:53;9.80;99.90
60293;DHT22;52402;52.670;6.750;2023-04-01T15:53:54;9.60;99.90
60293;DHT22;52402;52.670;6.750;2023-04-01T15:57:02;9.60;99.90
60293;DHT22;52402;52.670;6.750;2023-04-01T16:00:32;9.60;99.90
60293;DHT22;52402;52.670;6.750;2023-04-01T16:06:39;9.50;99.90
60293;DHT22;52402;52.670;6.750;2023-04-01T16:09:30;9.40;99.90
60293;DHT22;52402;52.670;6.750;2023-04-01T16:12:39;9.50;99.90
60293;DHT22;52402;52.670;6.750;2023-04-01T16:22:35;9.30;99.90
60293;DHT22;52402;52.670;6.750;2023-04-01T16:29:19;9.20;99.90
60293;DHT22;52402;52.670;6.750;2023-04-01T16:32:53;9.10;99.90
60293;DHT22;52402;52.670;6.750;2023-04-01T16:42:07;9.10;99.90
60293;DHT22;52402;52.670;6.750;2023-04-01T16:48:21;9.00;99.90
60293;DHT22;52402;52.670;6.750;2023-04-01T16:51:31;9.00;99.90
60293;DHT22;52402;52.670;6.750;2023-04-01T16:54:24;9.00;99.90
60293;DHT22;52402;52.670;6.750;2023-04-01T16:57:58;9.00;99.90
60293;DHT22;52402;52.670;6.750;2023-04-01T17:00:42;8.90;99.90
60293;DHT22;52402;52.670;6.750;2023-04-01T17:06:39;8.90;99.90
60293;DHT22;52402;52.670;6.750;2023-04-01T17:12:40;8.80;99.90
60293;DHT22;52402;52.670;6.750;2023-04-01T17:15:40;8.70;99.90
60293;DHT22;52402;52.670;6.750;2023-04-01T17:21:59;8.60;99.90
60293;DHT22;52402;52.670;6.750;2023-04-01T17:34:26;8.50;99.90
60293;DHT22;52402;52.670;6.750;2023-04-01T17:37:31;8.50;99.90
60293;DHT22;52402;52.670;6.750;2023-04-01T17:43:51;8.40;99.90
60293;DHT22;52402;52.670;6.750;2023-04-01T17:53:17;8.30;99.90
60293;DHT22;52402;52.670;6.750;2023-04-01T17:59:40;8.20;99.90
60293;DHT22;52402;52.670;6.750;2023-04-01T18:02:33;8.10;99.90
60293;DHT22;52402;52.670;6.750;2023-04-01T18:05:49;8.10;99.90
60293;DHT22;52402;52.670;6.750;2023-04-01T18:12:29;8.00;99.90
60293;DHT22;52402;52.670;6.750;2023-04-01T18:15:49;7.90;99.90
60293;DHT22;52402;52.670;6.750;2023-04-01T18:25:02;7.90;99.90
60293;DHT22;52402;52.670;6.750;2023-04-01T18:27:43;7.90;99.90
60293;DHT22;52402;52.670;6.750;2023-04-01T18:30:31;7.80;99.90
60293;DHT22;52402;52.670;6.750;2023-04-01T18:33:22;7.80;99.90
60293;DHT22;52402;52.670;6.750;2023-04-01T18:38:45;7.70;99.90
60293;DHT22;52402;52.670;6.750;2023-04-01T18:42:00;7.60;99.90
60293;DHT22;52402;52.670;6.750;2023-04-01T18:45:10;7.70;99.90
60293;DHT22;52402;52.670;6.750;2023-04-01T18:52:02;7.60;99.90
60293;DHT22;52402;52.670;6.750;2023-04-01T18:58:34;7.50;99.90
60293;DHT22;52402;52.670;6.750;2023-04-01T19:01:36;7.50;99.90
60293;DHT22;52402;52.670;6.750;2023-04-01T19:04:39;7.40;99.90
60293;DHT22;52402;52.670;6.750;2023-04-01T19:10:38;7.40;99.90
60293;DHT22;52402;52.670;6.750;2023-04-01T19:29:48;7.10;99.90
60293;DHT22;52402;52.670;6.750;2023-04-01T19:36:34;7.00;99.90
60293;DHT22;52402;52.670;6.750;2023-04-01T19:39:38;7.00;99.90
60293;DHT22;52402;52.670;6.750;2023-04-01T19:42:50;7.00;99.90
60293;DHT22;52402;52.670;6.750;2023-04-01T19:46:13;6.90;99.90
60293;DHT22;52402;52.670;6.750;2023-04-01T19:49:52;6.90;99.90
60293;DHT22;52402;52.670;6.750;2023-04-01T19:55:33;6.80;99.90
60293;DHT22;52402;52.670;6.750;2023-04-01T20:06:11;6.70;99.90
60293;DHT22;52402;52.670;6.750;2023-04-01T20:09:22;6.70;99.90
60293;DHT22;52402;52.670;6.750;2023-04-01T20:12:14;6.70;99.90
60293;DHT22;52402;52.670;6.750;2023-04-01T20:14:59;6.70;99.90
60293;DHT22;52402;52.670;6.750;2023-04-01T20:18:18;6.70;99.90
60293;DHT22;52402;52.670;6.750;2023-04-01T20:21:16;6.70;99.90
60293;DHT22;52402;52.670;6.750;2023-04-01T20:23:49;6.70;99.90
60293;DHT22;52402;52.670;6.750;2023-04-01T20:29:14;6.60;99.90
60293;DHT22;52402;52.670;6.750;2023-04-01T20:35:25;6.50;99.90
60293;DHT22;52402;52.670;6.750;2023-04-01T20:38:55;6.50;99.90
60293;DHT22;52402;52.670;6.750;2023-04-01T20:44:58;6.50;99.90
60293;DHT22;52402;52.670;6.750;2023-04-01T20:50:57;6.50;99.90
60293;DHT22;52402;52.670;6.750;2023-04-01T20:57:16;6.50;99.90
60293;DHT22;52402;52.670;6.750;2023-04-01T21:03:45;6.40;99.90
60293;DHT22;52402;52.670;6.750;2023-04-01T21:12:50;6.40;99.90
60293;DHT22;52402;52.670;6.750;2023-04-01T21:15:50;6.40;99.90
60293;DHT22;52402;52.670;6.750;2023-04-01T21:18:53;6.40;99.90
60293;DHT22;52402;52.670;6.750;2023-04-01T21:40:34;6.40;99.90
60293;DHT22;52402;52.670;6.750;2023-04-01T21:46:24;6.20;99.90
60293;DHT22;52402;52.670;6.750;2023-04-01T21:49:21;6.20;99.90
60293;DHT22;52402;52.670;6.750;2023-04-01T21:52:24;6.20;99.90
60293;DHT22;52402;52.670;6.750;2023-04-01T21:56:19;6.20;99.90
60293;DHT22;52402;52.670;6.750;2023-04-01T22:01:38;6.10;99.90
60293;DHT22;52402;52.670;6.750;2023-04-01T22:07:24;6.20;99.90
60293;DHT22;52402;52.670;6.750;2023-04-01T22:16:43;6.20;99.90
60293;DHT22;52402;52.670;6.750;2023-04-01T22:22:29;6.10;99.90
60293;DHT22;52402;52.670;6.750;2023-04-01T22:25:16;6.10;99.90
60293;DHT22;52402;52.670;6.750;2023-04-01T22:28:09;6.10;99.90
60293;DHT22;52402;52.670;6.750;2023-04-01T22:31:07;6.10;99.90
60293;DHT22;52402;52.670;6.750;2023-04-01T22:33:51;6.10;99.90
60293;DHT22;52402;52.670;6.750;2023-04-01T22:36:59;6.00;99.90
60293;DHT22;52402;52.670;6.750;2023-04-01T22:43:09;5.90;99.90
60293;DHT22;52402;52.670;6.750;2023-04-01T22:48:45;5.80;99.90
60293;DHT22;52402;52.670;6.750;2023-04-01T22:51:39;5.80;99.90
60293;DHT22;52402;52.670;6.750;2023-04-01T22:54:22;5.90;99.90
60293;DHT22;52402;52.670;6.750;2023-04-01T22:59:47;5.80;99.90
60293;DHT22;52402;52.670;6.750;2023-04-01T23:02:24;5.80;99.90
60293;DHT22;52402;52.670;6.750;2023-04-01T23:05:02;5.80;99.90
60293;DHT22;52402;52.670;6.750;2023-04-01T23:07:59;5.80;99.90
60293;DHT22;52402;52.670;6.750;2023-04-01T23:10:56;5.80;99.90
60293;DHT22;52402;52.670;6.750;2023-04-01T23:26:43;5.70;99.90
60293;DHT22;52402;52.670;6.750;2023-04-01T23:29:36;5.70;99.90
60293;DHT22;52402;52.670;6.750;2023-04-01T23:32:22;5.70;99.90
60293;DHT22;52402;52.670;6.750;2023-04-01T23:38:25;5.70;99.90
60293;DHT22;52402;52.670;6.750;2023-04-01T23:40:53;5.70;99.90
60293;DHT22;52402;52.670;6.750;2023-04-01T23:43:30;5.70;99.90
60293;DHT22;52402;52.670;6.750;2023-04-01T23:45:59;5.70;99.90
60293;DHT22;52402;52.670;6.750;2023-04-01T23:48:44;5.60;99.90
60293;DHT22;52402;52.670;6.750;2023-04-01T23:51:46;5.60;99.90
60293;DHT22;52402;52.670;6.750;2023-04-01T23:54:54;5.60;99.90
60293;DHT22;52402;52.670;6.750;2023-04-01T23:57:40;5.60;99.90
